createdAt,value
2023-04-17T00:04:41.211Z,98395.44
2023-04-17T00:09:43.897Z,98397.69
2023-04-17T00:14:46.429Z,98403.13
2023-04-17T00:19:50.382Z,98401.81
2023-04-17T00:24:52.989Z,98398.06
2023-04-17T00:29:55.835Z,98386.31
2023-04-17T00:34:58.740Z,98384.94
2023-04-17T00:40:04.520Z,98388.72
2023-04-17T00:45:11.065Z,98386.00
2023-04-17T00:50:14.299Z,98381.59
2023-04-17T00:55:17.639Z,98380.16
2023-04-17T01:00:20.235Z,98376.56
2023-04-17T01:05:24.051Z,98374.06
2023-04-17T01:10:26.754Z,98367.91
2023-04-17T01:15:29.552Z,98371.94
2023-04-17T01:20:33.126Z,98376.63
2023-04-17T01:25:36.317Z,98365.75
2023-04-17T01:30:39.140Z,98369.00
2023-04-17T01:35:44.237Z,98367.41
2023-04-17T01:40:46.946Z,98378.00
2023-04-17T01:45:49.539Z,98372.19
2023-04-17T01:50:53.474Z,98372.78
2023-04-17T01:55:56.632Z,98363.09
2023-04-17T02:00:59.782Z,98359.81
2023-04-17T02:06:02.746Z,98362.91
2023-04-17T02:11:05.570Z,98358.84
2023-04-17T02:16:09.819Z,98359.06
2023-04-17T02:21:12.705Z,98354.66
2023-04-17T02:26:16.226Z,98361.97
2023-04-17T02:31:20.351Z,98365.44
2023-04-17T02:36:22.969Z,98369.59
2023-04-17T02:41:25.811Z,98369.41
2023-04-17T02:46:29.077Z,98375.41
2023-04-17T02:51:33.080Z,98371.03
2023-04-17T02:56:35.855Z,98359.47
2023-04-17T03:01:38.921Z,98363.03
2023-04-17T03:06:41.570Z,98364.78
2023-04-17T03:11:44.352Z,98365.06
2023-04-17T03:16:47.080Z,98365.44
2023-04-17T03:21:50.064Z,98359.19
2023-04-17T03:26:52.884Z,98359.72
2023-04-17T03:31:57.253Z,98367.91
2023-04-17T03:37:00.201Z,98366.09
2023-04-17T03:42:08.117Z,98365.28
2023-04-17T03:47:11.511Z,98374.50
2023-04-17T03:52:16.456Z,98373.91
2023-04-17T03:57:21.120Z,98384.06
2023-04-17T04:02:24.973Z,98376.56
2023-04-17T04:07:30.103Z,98382.59
2023-04-17T04:12:34.380Z,98376.09
2023-04-17T04:17:37.807Z,98391.19
2023-04-17T04:22:41.765Z,98381.78
2023-04-17T04:27:49.777Z,98390.41
2023-04-17T04:33:01.386Z,98387.13
2023-04-17T04:38:05.182Z,98388.34
2023-04-17T04:43:10.001Z,98390.13
2023-04-17T04:48:17.261Z,98398.06
2023-04-17T04:53:21.051Z,98390.84
2023-04-17T04:58:31.381Z,98401.34
2023-04-17T05:03:37.715Z,98399.66
2023-04-17T05:08:42.054Z,98407.53
2023-04-17T05:13:47.142Z,98409.91
2023-04-17T05:19:02.056Z,98411.19
2023-04-17T05:24:24.861Z,98410.50
2023-04-17T05:29:27.619Z,98418.44
2023-04-17T05:34:32.234Z,98415.25
2023-04-17T05:39:35.742Z,98410.88
2023-04-17T05:44:38.548Z,98423.78
2023-04-17T05:49:42.588Z,98423.09
2023-04-17T05:54:45.812Z,98421.38
2023-04-17T05:59:49.436Z,98424.56
2023-04-17T06:04:52.782Z,98430.28
2023-04-17T06:09:55.780Z,98432.88
2023-04-17T06:14:58.420Z,98430.84
2023-04-17T06:20:01.308Z,98439.00
2023-04-17T06:25:04.574Z,98444.22
2023-04-17T06:30:07.749Z,98447.38
2023-04-17T06:35:21.529Z,98443.38
2023-04-17T06:40:29.627Z,98443.34
2023-04-17T06:45:34.513Z,98445.69
2023-04-17T06:50:42.367Z,98444.34
2023-04-17T06:55:45.343Z,98457.19
2023-04-17T07:00:47.910Z,98447.97
2023-04-17T07:05:50.912Z,98448.81
2023-04-17T07:10:54.774Z,98459.72
2023-04-17T07:15:58.646Z,98466.66
2023-04-17T07:21:02.279Z,98460.50
2023-04-17T07:26:05.088Z,98467.03
2023-04-17T07:31:08.976Z,98461.06
2023-04-17T07:36:12.747Z,98465.88
2023-04-17T07:41:15.693Z,98473.81
2023-04-17T07:46:18.610Z,98472.97
2023-04-17T07:51:21.155Z,98476.03
2023-04-17T07:56:24.483Z,98478.41
2023-04-17T08:01:28.091Z,98486.91
2023-04-17T08:06:30.958Z,98483.38
2023-04-17T08:11:40.090Z,98481.31
2023-04-17T08:16:45.441Z,98493.66
2023-04-17T08:21:51.980Z,98493.50
2023-04-17T08:26:54.626Z,98494.94
2023-04-17T08:32:10.899Z,98500.94
2023-04-17T08:37:16.920Z,98499.03
2023-04-17T08:42:19.639Z,98497.59
2023-04-17T08:47:22.433Z,98492.50
2023-04-17T08:52:25.312Z,98505.53
2023-04-17T08:57:28.073Z,98510.00
2023-04-17T09:02:30.806Z,98503.47
2023-04-17T09:07:33.901Z,98505.00
2023-04-17T09:12:41.946Z,98501.28
2023-04-17T09:17:44.636Z,98510.31
2023-04-17T09:22:47.446Z,98508.63
2023-04-17T09:27:50.084Z,98512.69
2023-04-17T09:33:04.742Z,98506.88
2023-04-17T09:38:07.651Z,98513.25
2023-04-17T09:43:11.054Z,98512.38
2023-04-17T09:48:14.294Z,98515.31
2023-04-17T09:53:19.410Z,98507.38
2023-04-17T09:58:22.629Z,98507.19
2023-04-17T10:03:27.147Z,98518.94
2023-04-17T10:08:30.103Z,98507.28
2023-04-17T10:13:36.234Z,98504.19
2023-04-17T10:18:39.692Z,98507.34
2023-04-17T10:23:43.022Z,98501.03
2023-04-17T10:28:50.039Z,98493.31
2023-04-17T10:33:54.573Z,98496.59
2023-04-17T10:39:16.200Z,98485.97
2023-04-17T10:44:19.250Z,98481.47
2023-04-17T10:49:24.973Z,98483.03
2023-04-17T10:54:27.674Z,98481.72
2023-04-17T10:59:31.298Z,98481.13
2023-04-17T11:04:34.549Z,98479.13
2023-04-17T11:09:38.150Z,98470.06
2023-04-17T11:14:43.296Z,98464.69
2023-04-17T11:19:46.953Z,98463.16
2023-04-17T11:24:52.217Z,98466.66
2023-04-17T11:29:54.855Z,98461.53
2023-04-17T11:34:58.123Z,98449.50
2023-04-17T11:40:08.390Z,98451.03
2023-04-17T11:45:11.645Z,98446.09
2023-04-17T11:50:16.609Z,98443.13
2023-04-17T11:55:19.320Z,98445.91
2023-04-17T12:00:27.688Z,98451.44
2023-04-17T12:05:31.491Z,98449.25
2023-04-17T12:10:42.968Z,98449.78
2023-04-17T12:15:45.797Z,98453.19
2023-04-17T12:20:48.853Z,98455.97
2023-04-17T12:25:51.398Z,98458.88
2023-04-17T12:30:53.977Z,98458.56
2023-04-17T12:35:56.677Z,98456.16
2023-04-17T12:40:59.498Z,98453.19
2023-04-17T12:46:02.575Z,98455.22
2023-04-17T12:51:05.516Z,98446.53
2023-04-17T12:56:08.480Z,98440.53
2023-04-17T13:01:11.148Z,98440.59
2023-04-17T13:06:16.121Z,98446.53
2023-04-17T13:11:18.848Z,98444.25
2023-04-17T13:16:21.587Z,98443.72
2023-04-17T13:21:24.258Z,98452.53
2023-04-17T13:26:26.864Z,98447.78
2023-04-17T13:31:29.603Z,98435.13
2023-04-17T13:36:32.653Z,98436.44
2023-04-17T13:41:36.474Z,98435.03
2023-04-17T13:46:39.505Z,98430.28
2023-04-17T13:51:42.172Z,98425.63
2023-04-17T13:56:45.781Z,98425.69
2023-04-17T14:01:48.503Z,98431.63
2023-04-17T14:06:51.666Z,98419.63
2023-04-17T14:11:54.274Z,98422.56
2023-04-17T14:16:57.807Z,98413.31
2023-04-17T14:22:00.501Z,98414.69
2023-04-17T14:27:04.016Z,98410.94
2023-04-17T14:32:06.866Z,98414.47
2023-04-17T14:37:09.432Z,98415.81
2023-04-17T14:42:11.967Z,98408.63
2023-04-17T14:47:14.796Z,98415.22
2023-04-17T14:52:17.597Z,98405.28
2023-04-17T14:57:21.212Z,98409.63
2023-04-17T15:02:24.004Z,98403.97
2023-04-17T15:07:26.781Z,98404.72
2023-04-17T15:12:29.573Z,98407.94
2023-04-17T15:17:32.523Z,98404.16
2023-04-17T15:22:35.536Z,98407.78
2023-04-17T15:27:38.170Z,98412.22
2023-04-17T15:32:41.996Z,98407.34
2023-04-17T15:37:44.690Z,98412.34
2023-04-17T15:42:47.288Z,98411.44
2023-04-17T15:47:50.251Z,98408.78
2023-04-17T15:52:52.977Z,98408.47
2023-04-17T15:57:56.195Z,98409.44
2023-04-17T16:02:58.994Z,98412.13
2023-04-17T16:08:01.988Z,98405.34
2023-04-17T16:13:04.781Z,98413.25
2023-04-17T16:18:08.982Z,98414.84
2023-04-17T16:23:11.695Z,98415.56
2023-04-17T16:28:14.263Z,98412.13
2023-04-17T16:33:17.104Z,98416.22
2023-04-17T16:38:19.787Z,98427.59
2023-04-17T16:43:22.588Z,98424.56
2023-04-17T16:48:25.585Z,98417.16
2023-04-17T16:53:28.306Z,98424.66
2023-04-17T16:58:30.955Z,98418.66
2023-04-17T17:03:34.308Z,98425.34
2023-04-17T17:08:37.298Z,98427.44
2023-04-17T17:13:40.348Z,98433.78
2023-04-17T17:18:43.441Z,98434.88
2023-04-17T17:23:46.090Z,98433.31
2023-04-17T17:28:51.478Z,98438.91
2023-04-17T17:33:55.400Z,98446.31
2023-04-17T17:39:00.217Z,98445.59
2023-04-17T17:44:03.813Z,98450.06
2023-04-17T17:49:08.915Z,98442.88
2023-04-17T17:54:12.263Z,98450.28
2023-04-17T17:59:14.996Z,98458.03
2023-04-17T18:04:17.910Z,98458.19
2023-04-17T18:09:20.963Z,98455.25
2023-04-17T18:14:23.667Z,98456.94
2023-04-17T18:19:26.241Z,98460.78
2023-04-17T18:24:28.952Z,98464.72
2023-04-17T18:29:31.690Z,98469.56
2023-04-17T18:34:34.643Z,98465.31
2023-04-17T18:39:37.244Z,98470.41
2023-04-17T18:44:40.145Z,98484.00
2023-04-17T18:49:42.752Z,98489.78
2023-04-17T18:54:45.413Z,98497.88
2023-04-17T18:59:48.104Z,98499.00
2023-04-17T19:04:50.774Z,98493.00
2023-04-17T19:09:53.326Z,98497.00
2023-04-17T19:14:57.494Z,98500.63
2023-04-17T19:20:00.278Z,98496.09
2023-04-17T19:25:03.221Z,98504.63
2023-04-17T19:30:08.952Z,98503.88
2023-04-17T19:35:11.759Z,98495.16
2023-04-17T19:40:23.654Z,98497.97
2023-04-17T19:45:27.300Z,98510.06
2023-04-17T19:50:30.712Z,98508.75
2023-04-17T19:55:33.798Z,98501.69
2023-04-17T20:00:36.428Z,98490.19
2023-04-17T20:05:39.086Z,98495.13
2023-04-17T20:10:41.728Z,98486.47
2023-04-17T20:15:44.750Z,98489.19
2023-04-17T20:20:47.411Z,98489.84
2023-04-17T20:25:50.656Z,98484.09
2023-04-17T20:30:53.571Z,98499.84
2023-04-17T20:35:56.298Z,98495.28
2023-04-17T20:40:58.903Z,98497.38
2023-04-17T20:46:02.191Z,98491.63
2023-04-17T20:51:06.170Z,98488.28
2023-04-17T20:56:08.934Z,98490.59
2023-04-17T21:01:11.546Z,98482.94
2023-04-17T21:06:14.352Z,98488.72
2023-04-17T21:11:17.064Z,98474.66
2023-04-17T21:16:19.889Z,98478.94
2023-04-17T21:21:22.767Z,98471.19
2023-04-17T21:26:25.477Z,98475.44
2023-04-17T21:31:28.135Z,98468.06
2023-04-17T21:36:31.632Z,98474.75
2023-04-17T21:41:34.835Z,98467.84
2023-04-17T21:46:38.558Z,98467.13
2023-04-17T21:51:41.357Z,98468.69
2023-04-17T21:56:44.107Z,98459.31
2023-04-17T22:01:46.799Z,98462.50
2023-04-17T22:06:51.910Z,98465.81
2023-04-17T22:11:54.589Z,98454.78
2023-04-17T22:16:57.198Z,98448.22
2023-04-17T22:21:59.877Z,98447.03
2023-04-17T22:27:02.594Z,98438.31
2023-04-17T22:32:05.434Z,98435.53
2023-04-17T22:37:08.614Z,98439.56
2023-04-17T22:42:11.187Z,98439.97
2023-04-17T22:47:14.444Z,98435.28
2023-04-17T22:52:17.008Z,98441.50
2023-04-17T22:57:19.533Z,98440.69
2023-04-17T23:02:22.183Z,98444.03
2023-04-17T23:07:24.788Z,98437.91
2023-04-17T23:12:27.543Z,98437.19
2023-04-17T23:17:30.115Z,98434.00
2023-04-17T23:22:33.157Z,98433.19
2023-04-17T23:27:36.170Z,98430.56
2023-04-17T23:32:41.859Z,98420.97
2023-04-17T23:37:44.481Z,98419.53
2023-04-17T23:42:47.165Z,98414.06
2023-04-17T23:47:49.979Z,98416.66
2023-04-17T23:52:54.404Z,98416.75
2023-04-17T23:57:57.701Z,98417.09
